createdAt,value
2018-11-29T00:00:20.761Z,9.17
2018-11-29T00:02:49.248Z,7.77
2018-11-29T00:05:16.773Z,8.00
2018-11-29T00:07:45.293Z,8.33
2018-11-29T00:10:13.274Z,6.70
2018-11-29T00:12:41.011Z,7.17
2018-11-29T00:15:09.824Z,7.60
2018-11-29T00:17:37.673Z,7.03
2018-11-29T00:20:15.852Z,6.60
2018-11-29T00:22:45.240Z,7.00
2018-11-29T00:25:15.222Z,6.83
2018-11-29T00:27:42.693Z,5.97
2018-11-29T00:30:19.816Z,6.57
2018-11-29T00:32:47.227Z,6.70
2018-11-29T00:35:15.303Z,6.40
2018-11-29T00:37:42.640Z,6.30
2018-11-29T00:40:12.073Z,7.13
2018-11-29T00:42:39.641Z,7.17
2018-11-29T00:45:13.119Z,7.20
2018-11-29T00:47:40.705Z,6.90
2018-11-29T00:50:09.558Z,6.17
2018-11-29T00:52:37.952Z,6.30
2018-11-29T00:55:06.821Z,6.90
2018-11-29T00:57:34.396Z,7.60
2018-11-29T01:00:01.911Z,6.33
2018-11-29T01:02:29.437Z,7.57
2018-11-29T01:04:56.961Z,6.53
2018-11-29T01:07:24.460Z,6.63
2018-11-29T01:09:51.964Z,6.50
2018-11-29T01:12:19.421Z,8.00
2018-11-29T01:14:47.236Z,6.53
2018-11-29T01:17:14.696Z,6.13
2018-11-29T01:19:42.145Z,7.43
2018-11-29T01:22:09.597Z,6.63
2018-11-29T01:24:37.081Z,6.70
2018-11-29T01:27:04.702Z,6.57
2018-11-29T01:29:32.164Z,6.20
2018-11-29T01:31:59.641Z,6.17
2018-11-29T01:34:27.131Z,6.57
2018-11-29T01:36:54.614Z,6.87
2018-11-29T01:39:22.056Z,6.30
2018-11-29T01:41:49.518Z,6.27
2018-11-29T01:44:16.982Z,6.27
2018-11-29T01:46:44.449Z,6.00
2018-11-29T01:49:11.889Z,5.77
2018-11-29T01:51:39.344Z,5.50
2018-11-29T01:54:07.145Z,5.40
2018-11-29T01:56:34.609Z,5.73
2018-11-29T01:59:02.055Z,5.93
2018-11-29T02:01:29.541Z,5.60
2018-11-29T02:03:56.990Z,5.70
2018-11-29T02:06:24.453Z,6.70
2018-11-29T02:08:52.009Z,5.40
2018-11-29T02:11:19.468Z,6.03
2018-11-29T02:13:48.035Z,6.20
2018-11-29T02:16:15.386Z,6.40
2018-11-29T02:18:42.639Z,5.87
2018-11-29T02:21:09.879Z,6.00
2018-11-29T02:23:37.133Z,6.23
2018-11-29T02:26:04.913Z,6.40
2018-11-29T02:28:32.185Z,6.87
2018-11-29T02:30:59.493Z,6.10
2018-11-29T02:33:28.322Z,6.80
2018-11-29T02:35:55.590Z,7.40
2018-11-29T02:38:22.837Z,6.00
2018-11-29T02:40:50.078Z,6.50
2018-11-29T02:43:17.352Z,6.80
2018-11-29T02:45:44.608Z,6.30
2018-11-29T02:48:11.846Z,6.87
2018-11-29T02:50:39.185Z,6.97
2018-11-29T02:53:06.456Z,6.33
2018-11-29T02:55:33.778Z,6.67
2018-11-29T02:58:01.229Z,6.80
2018-11-29T03:00:32.716Z,6.50
2018-11-29T03:03:00.025Z,6.27
2018-11-29T03:05:27.305Z,7.50
2018-11-29T03:07:54.587Z,6.80
2018-11-29T03:10:26.070Z,6.60
2018-11-29T03:12:53.413Z,6.90
2018-11-29T03:15:20.898Z,7.77
2018-11-29T03:17:48.797Z,7.50
2018-11-29T03:20:16.101Z,7.60
2018-11-29T03:22:43.373Z,7.40
2018-11-29T03:25:12.354Z,8.07
2018-11-29T03:27:39.852Z,7.07
2018-11-29T03:30:10.815Z,7.00
2018-11-29T03:32:38.115Z,7.80
2018-11-29T03:35:05.614Z,6.77
2018-11-29T03:37:32.891Z,7.13
2018-11-29T03:40:00.509Z,8.30
2018-11-29T03:42:27.796Z,6.73
2018-11-29T03:44:55.058Z,6.80
2018-11-29T03:47:22.368Z,7.17
2018-11-29T03:49:49.635Z,8.50
2018-11-29T03:52:16.873Z,7.70
2018-11-29T03:54:44.120Z,7.40
2018-11-29T03:57:12.323Z,8.07
2018-11-29T03:59:39.717Z,7.77
2018-11-29T04:02:07.141Z,8.00
2018-11-29T04:04:34.387Z,6.53
2018-11-29T04:07:02.610Z,7.47
2018-11-29T04:09:29.852Z,7.07
2018-11-29T04:11:57.098Z,7.20
2018-11-29T04:14:24.321Z,8.60
2018-11-29T04:16:51.911Z,8.33
2018-11-29T04:19:19.146Z,8.47
2018-11-29T04:21:46.367Z,7.13
2018-11-29T04:24:13.672Z,8.60
2018-11-29T04:26:40.924Z,7.60
2018-11-29T04:29:08.660Z,7.40
2018-11-29T04:31:35.937Z,7.93
2018-11-29T04:34:03.224Z,7.73
2018-11-29T04:36:30.780Z,7.47
2018-11-29T04:38:58.021Z,6.73
2018-11-29T04:41:25.256Z,7.50
2018-11-29T04:43:52.616Z,7.70
2018-11-29T04:46:51.570Z,8.60
2018-11-29T04:49:19.008Z,7.80
2018-11-29T04:51:46.484Z,7.03
2018-11-29T04:54:14.081Z,7.83
2018-11-29T04:56:41.700Z,7.60
2018-11-29T04:59:09.185Z,7.30
2018-11-29T05:01:37.169Z,7.93
2018-11-29T05:04:07.743Z,7.00
2018-11-29T05:06:35.345Z,7.33
2018-11-29T05:09:04.368Z,7.77
2018-11-29T05:11:32.336Z,7.43
2018-11-29T05:13:59.873Z,7.30
2018-11-29T05:16:27.353Z,8.00
2018-11-29T05:18:54.764Z,7.90
2018-11-29T05:21:22.166Z,6.87
2018-11-29T05:23:49.632Z,7.67
2018-11-29T05:26:17.097Z,7.63
2018-11-29T05:28:44.524Z,7.40
2018-11-29T05:31:12.517Z,7.63
2018-11-29T05:33:40.101Z,7.00
2018-11-29T05:36:07.724Z,7.33
2018-11-29T05:38:35.165Z,8.33
2018-11-29T05:41:02.571Z,7.37
2018-11-29T05:43:29.993Z,7.93
2018-11-29T05:45:58.472Z,7.20
2018-11-29T05:48:25.901Z,8.33
2018-11-29T05:50:53.369Z,6.90
2018-11-29T05:53:20.856Z,7.00
2018-11-29T05:55:48.522Z,7.33
2018-11-29T05:58:16.034Z,7.30
2018-11-29T06:00:43.777Z,7.70
2018-11-29T06:03:11.452Z,8.10
2018-11-29T06:05:39.499Z,8.50
2018-11-29T06:08:06.533Z,8.00
2018-11-29T06:10:33.988Z,7.93
2018-11-29T06:13:01.469Z,7.67
2018-11-29T06:15:28.955Z,8.93
2018-11-29T06:17:57.284Z,8.77
2018-11-29T06:20:24.777Z,7.73
2018-11-29T06:22:52.241Z,8.07
2018-11-29T06:25:19.794Z,8.37
2018-11-29T06:27:47.478Z,8.87
2018-11-29T06:30:17.029Z,8.83
2018-11-29T06:32:44.541Z,8.70
2018-11-29T06:35:12.023Z,9.37
2018-11-29T06:37:39.521Z,9.03
2018-11-29T06:40:09.733Z,9.00
2018-11-29T06:42:37.422Z,8.57
2018-11-29T06:45:08.319Z,7.90
2018-11-29T06:47:35.777Z,8.90
2018-11-29T06:50:04.027Z,8.87
2018-11-29T06:52:31.461Z,9.57
2018-11-29T06:54:58.925Z,8.40
2018-11-29T06:57:26.380Z,8.67
2018-11-29T06:59:57.477Z,9.50
2018-11-29T07:02:24.962Z,9.10
2018-11-29T07:04:52.580Z,9.00
2018-11-29T07:07:20.028Z,8.83
2018-11-29T07:09:47.597Z,8.97
2018-11-29T07:12:15.082Z,9.20
2018-11-29T07:14:42.552Z,8.67
2018-11-29T07:17:09.951Z,9.50
2018-11-29T07:19:37.361Z,8.70
2018-11-29T07:22:04.915Z,9.07
2018-11-29T07:24:32.188Z,8.83
2018-11-29T07:26:59.436Z,8.70
2018-11-29T07:29:26.684Z,7.40
2018-11-29T07:31:53.968Z,8.43
2018-11-29T07:34:21.216Z,8.37
2018-11-29T07:36:48.479Z,8.73
2018-11-29T07:39:16.061Z,9.10
2018-11-29T07:41:43.307Z,7.67
2018-11-29T07:44:10.599Z,9.30
2018-11-29T07:46:38.649Z,8.70
2018-11-29T07:49:05.942Z,8.20
2018-11-29T07:51:33.216Z,7.90
2018-11-29T07:54:00.552Z,8.80
2018-11-29T07:56:29.448Z,8.50
2018-11-29T07:58:56.964Z,8.27
2018-11-29T08:01:24.178Z,7.67
2018-11-29T08:03:51.572Z,7.87
2018-11-29T08:06:18.817Z,7.63
2018-11-29T08:08:46.067Z,8.03
2018-11-29T08:11:14.529Z,7.90
2018-11-29T08:13:41.906Z,7.40
2018-11-29T08:16:09.205Z,7.13
2018-11-29T08:18:36.453Z,8.50
2018-11-29T08:21:03.768Z,7.40
2018-11-29T08:23:31.016Z,7.50
2018-11-29T08:26:03.169Z,8.03
2018-11-29T08:28:30.672Z,6.70
2018-11-29T08:30:57.892Z,7.27
2018-11-29T08:33:25.132Z,6.43
2018-11-29T08:35:53.739Z,6.90
2018-11-29T08:38:21.011Z,7.63
2018-11-29T08:40:52.113Z,7.10
2018-11-29T08:43:19.340Z,8.30
2018-11-29T08:45:46.580Z,6.00
2018-11-29T08:48:13.833Z,8.40
2018-11-29T08:50:41.077Z,6.50
2018-11-29T08:53:09.374Z,6.00
2018-11-29T08:55:38.652Z,5.93
2018-11-29T08:58:05.900Z,6.00
2018-11-29T09:00:33.152Z,6.03
2018-11-29T09:03:00.396Z,5.40
2018-11-29T09:05:27.649Z,5.67
2018-11-29T09:07:54.910Z,5.77
2018-11-29T09:10:31.402Z,5.07
2018-11-29T09:12:52.154Z,5.27
2018-11-29T09:15:19.482Z,5.03
2018-11-29T09:17:49.096Z,4.70
2018-11-29T09:20:17.462Z,4.03
2018-11-29T09:22:49.222Z,4.20
2018-11-29T09:25:18.600Z,4.57
2018-11-29T09:27:45.873Z,3.97
2018-11-29T09:30:15.076Z,4.30
2018-11-29T09:32:43.029Z,4.33
2018-11-29T09:35:13.941Z,3.70
2018-11-29T09:37:41.208Z,4.07
2018-11-29T09:40:10.529Z,4.03
2018-11-29T09:42:38.269Z,3.93
2018-11-29T09:45:08.920Z,3.83
2018-11-29T09:47:38.396Z,4.03
2018-11-29T09:50:09.579Z,3.70
2018-11-29T09:52:37.641Z,4.13
2018-11-29T09:55:05.005Z,4.50
2018-11-29T09:57:32.282Z,3.93
2018-11-29T10:00:03.624Z,4.33
2018-11-29T10:02:30.901Z,3.80
2018-11-29T10:04:58.165Z,3.57
2018-11-29T10:07:25.423Z,4.07
2018-11-29T10:09:52.852Z,3.70
2018-11-29T10:12:20.116Z,3.37
2018-11-29T10:14:54.098Z,3.37
2018-11-29T10:17:21.369Z,3.47
2018-11-29T10:19:48.728Z,3.50
2018-11-29T10:22:16.012Z,3.97
2018-11-29T10:24:43.361Z,3.53
2018-11-29T10:27:10.609Z,3.50
2018-11-29T10:29:39.800Z,3.17
2018-11-29T10:32:07.310Z,3.20
2018-11-29T10:34:34.553Z,3.47
2018-11-29T10:37:01.838Z,3.73
2018-11-29T10:39:29.246Z,3.10
2018-11-29T10:41:56.473Z,3.90
2018-11-29T10:44:28.358Z,3.60
2018-11-29T10:46:55.677Z,3.50
2018-11-29T10:49:22.905Z,4.10
2018-11-29T10:51:50.193Z,3.67
2018-11-29T10:54:17.437Z,3.37
2018-11-29T10:56:44.673Z,3.00
2018-11-29T10:59:13.345Z,3.40
2018-11-29T11:01:43.849Z,3.30
2018-11-29T11:04:11.088Z,4.00
2018-11-29T11:06:38.381Z,3.00
2018-11-29T11:09:08.053Z,3.30
2018-11-29T11:11:35.532Z,3.53
2018-11-29T11:14:04.798Z,3.73
2018-11-29T11:16:32.034Z,3.53
2018-11-29T11:18:59.388Z,3.63
2018-11-29T11:21:26.644Z,3.03
2018-11-29T11:23:59.351Z,3.60
2018-11-29T11:26:21.189Z,3.43
2018-11-29T11:28:51.145Z,3.23
2018-11-29T11:31:18.569Z,3.63
2018-11-29T11:33:45.831Z,3.50
2018-11-29T11:36:13.137Z,3.47
2018-11-29T11:38:40.497Z,3.67
2018-11-29T11:41:07.836Z,3.40
2018-11-29T11:43:37.397Z,4.37
2018-11-29T11:46:04.865Z,3.37
2018-11-29T11:48:32.119Z,4.00
2018-11-29T11:50:59.388Z,3.80
2018-11-29T11:53:26.680Z,3.10
2018-11-29T11:55:54.202Z,3.20
2018-11-29T11:58:24.164Z,3.17
2018-11-29T12:00:51.686Z,3.00
2018-11-29T12:03:19.030Z,3.03
2018-11-29T12:05:46.449Z,3.67
2018-11-29T12:08:13.904Z,3.40
2018-11-29T12:10:42.272Z,3.53
2018-11-29T12:13:11.763Z,3.03
2018-11-29T12:15:39.028Z,3.17
2018-11-29T12:18:08.638Z,3.40
2018-11-29T12:20:35.853Z,3.53
2018-11-29T12:23:03.124Z,3.70
2018-11-29T12:25:30.663Z,3.40
2018-11-29T12:28:02.252Z,3.30
2018-11-29T12:30:35.356Z,3.90
2018-11-29T12:33:03.945Z,3.87
2018-11-29T12:35:31.277Z,4.07
2018-11-29T12:37:58.521Z,4.43
2018-11-29T12:40:29.452Z,3.90
2018-11-29T12:42:56.717Z,4.27
2018-11-29T12:45:23.972Z,4.57
2018-11-29T12:47:51.306Z,4.60
2018-11-29T12:50:19.823Z,4.77
2018-11-29T12:52:47.252Z,4.67
2018-11-29T12:55:18.529Z,4.37
2018-11-29T12:57:45.769Z,5.03
2018-11-29T13:00:18.048Z,4.83
2018-11-29T13:02:49.599Z,5.17
2018-11-29T13:05:22.295Z,5.97
2018-11-29T13:07:49.882Z,4.90
2018-11-29T13:10:18.429Z,5.60
2018-11-29T13:12:45.882Z,5.73
2018-11-29T13:15:14.693Z,5.70
2018-11-29T13:17:42.111Z,5.47
2018-11-29T13:20:13.609Z,6.30
2018-11-29T13:22:42.193Z,5.67
2018-11-29T13:25:14.128Z,5.63
2018-11-29T13:27:41.781Z,5.83
2018-11-29T13:30:13.113Z,5.90
2018-11-29T13:32:42.955Z,5.20
2018-11-29T13:35:15.781Z,6.30
2018-11-29T13:37:49.864Z,6.10
2018-11-29T13:42:44.807Z,5.30
2018-11-29T13:45:13.764Z,5.60
2018-11-29T13:47:41.317Z,5.70
2018-11-29T13:50:10.320Z,5.13
2018-11-29T13:52:37.792Z,5.53
2018-11-29T13:55:06.230Z,5.07
2018-11-29T13:57:38.725Z,5.40
2018-11-29T14:00:14.062Z,5.90
2018-11-29T14:02:41.718Z,5.40
2018-11-29T14:05:09.893Z,4.90
2018-11-29T14:07:40.703Z,5.07
2018-11-29T14:10:14.467Z,4.70
2018-11-29T14:12:41.831Z,4.30
2018-11-29T14:15:16.847Z,3.87
2018-11-29T14:17:44.889Z,4.50
2018-11-29T14:20:12.881Z,4.40
2018-11-29T14:22:40.465Z,4.33
2018-11-29T14:25:09.163Z,4.47
2018-11-29T14:27:36.649Z,4.90
2018-11-29T14:30:20.666Z,4.47
2018-11-29T14:32:48.429Z,4.23
2018-11-29T14:35:15.832Z,4.00
2018-11-29T14:37:48.608Z,4.00
2018-11-29T14:40:19.882Z,4.90
2018-11-29T14:42:47.788Z,4.60
2018-11-29T14:45:17.006Z,5.70
2018-11-29T14:47:44.294Z,5.37
2018-11-29T14:50:47.732Z,5.00
2018-11-29T14:53:15.026Z,5.33
2018-11-29T14:55:42.316Z,4.40
2018-11-29T14:58:10.861Z,4.80
2018-11-29T15:00:38.201Z,5.10
2018-11-29T15:03:14.675Z,5.17
2018-11-29T15:05:42.353Z,4.77
2018-11-29T15:08:09.788Z,4.50
2018-11-29T15:10:38.053Z,4.47
2018-11-29T15:13:07.064Z,4.20
2018-11-29T15:15:38.435Z,4.13
2018-11-29T15:18:06.614Z,4.90
2018-11-29T15:20:40.133Z,4.00
2018-11-29T15:23:09.107Z,3.87
2018-11-29T15:25:41.877Z,4.20
2018-11-29T15:28:09.356Z,3.37
2018-11-29T15:30:36.849Z,3.90
2018-11-29T15:33:04.582Z,3.80
2018-11-29T15:35:32.101Z,4.60
2018-11-29T15:38:04.168Z,4.40
2018-11-29T15:40:31.804Z,3.00
2018-11-29T15:42:59.524Z,3.20
2018-11-29T15:45:27.248Z,3.80
2018-11-29T15:47:54.711Z,3.40
2018-11-29T15:50:22.405Z,3.50
2018-11-29T15:52:51.137Z,3.13
2018-11-29T15:55:19.688Z,3.37
2018-11-29T15:57:47.999Z,4.30
2018-11-29T16:00:18.516Z,4.37
2018-11-29T16:02:50.246Z,4.40
2018-11-29T16:05:18.731Z,3.80
2018-11-29T16:07:46.187Z,3.67
2018-11-29T16:10:15.007Z,4.40
2018-11-29T16:12:42.624Z,3.63
2018-11-29T16:15:13.828Z,4.07
2018-11-29T16:17:41.971Z,4.73
2018-11-29T16:20:11.081Z,5.00
2018-11-29T16:22:38.565Z,4.57
2018-11-29T16:25:08.635Z,5.47
2018-11-29T16:27:36.106Z,4.03
2018-11-29T16:30:10.412Z,4.40
2018-11-29T16:32:37.921Z,4.27
2018-11-29T16:35:06.548Z,5.10
2018-11-29T16:37:34.170Z,4.50
2018-11-29T16:40:01.639Z,4.30
2018-11-29T16:42:29.235Z,4.90
2018-11-29T16:44:59.330Z,4.57
2018-11-29T16:47:26.801Z,4.80
2018-11-29T16:49:54.321Z,5.23
2018-11-29T16:52:21.790Z,5.10
2018-11-29T16:54:49.323Z,4.67
2018-11-29T16:59:49.525Z,4.60
2018-11-29T17:02:16.948Z,4.07
2018-11-29T17:04:44.488Z,5.40
2018-11-29T17:07:11.927Z,5.00
2018-11-29T17:09:41.520Z,5.07
2018-11-29T17:12:09.176Z,4.73
2018-11-29T17:14:36.669Z,4.87
2018-11-29T17:17:04.584Z,6.27
2018-11-29T17:19:32.021Z,4.43
2018-11-29T17:21:59.496Z,5.03
2018-11-29T17:24:26.936Z,5.13
2018-11-29T17:26:57.326Z,5.33
2018-11-29T17:29:24.771Z,4.93
2018-11-29T17:31:52.275Z,4.63
2018-11-29T17:34:19.824Z,4.43
2018-11-29T17:36:47.499Z,5.00
2018-11-29T17:39:15.084Z,5.30
2018-11-29T17:41:47.189Z,5.53
2018-11-29T17:44:15.048Z,5.60
2018-11-29T17:46:42.536Z,5.83
2018-11-29T17:49:10.041Z,6.03
2018-11-29T17:51:37.565Z,6.20
2018-11-29T17:54:05.087Z,6.20
2018-11-29T17:56:37.070Z,5.90
2018-11-29T17:59:04.759Z,5.50
2018-11-29T18:01:32.422Z,5.47
2018-11-29T18:03:59.864Z,5.27
2018-11-29T18:06:27.535Z,5.40
2018-11-29T18:08:55.070Z,4.93
2018-11-29T18:11:24.181Z,5.20
2018-11-29T18:13:51.752Z,5.50
2018-11-29T18:16:19.009Z,5.73
2018-11-29T18:18:46.247Z,6.10
2018-11-29T18:21:13.652Z,7.10
2018-11-29T18:23:40.945Z,5.20
2018-11-29T18:26:13.267Z,5.60
2018-11-29T18:28:40.632Z,6.10
2018-11-29T18:31:08.269Z,5.63
2018-11-29T18:33:35.545Z,5.17
2018-11-29T18:36:02.857Z,6.30
2018-11-29T18:38:30.117Z,6.10
2018-11-29T18:40:57.396Z,5.87
2018-11-29T18:43:24.695Z,5.00
2018-11-29T18:45:52.151Z,5.13
2018-11-29T18:48:19.412Z,6.00
2018-11-29T18:50:46.673Z,5.47
2018-11-29T18:53:14.278Z,5.80
2018-11-29T18:55:43.031Z,6.10
2018-11-29T18:58:10.281Z,6.23
2018-11-29T19:00:37.791Z,5.80
2018-11-29T19:03:05.961Z,4.57
2018-11-29T19:05:33.216Z,5.50
2018-11-29T19:08:01.838Z,5.70
2018-11-29T19:10:29.229Z,5.80
2018-11-29T19:12:58.708Z,5.70
2018-11-29T19:15:25.965Z,5.80
2018-11-29T19:17:53.366Z,6.23
2018-11-29T19:20:24.571Z,5.90
2018-11-29T19:22:51.900Z,6.70
2018-11-29T19:25:19.553Z,6.00
2018-11-29T19:27:46.844Z,5.20
2018-11-29T19:30:31.580Z,5.83
2018-11-29T19:33:01.626Z,5.60
2018-11-29T19:35:28.919Z,6.33
2018-11-29T19:37:56.224Z,6.33
2018-11-29T19:40:23.590Z,6.80
2018-11-29T19:42:50.885Z,5.47
2018-11-29T19:45:21.255Z,5.63
2018-11-29T19:47:48.553Z,6.00
2018-11-29T19:50:17.793Z,6.03
2018-11-29T19:52:48.680Z,6.00
2018-11-29T19:55:22.395Z,6.30
2018-11-29T19:57:49.993Z,5.23
2018-11-29T20:00:17.569Z,5.17
2018-11-29T20:02:45.957Z,5.80
2018-11-29T20:05:13.504Z,6.07
2018-11-29T20:07:41.052Z,5.80
2018-11-29T20:10:13.515Z,5.53
2018-11-29T20:12:41.009Z,5.47
2018-11-29T20:15:12.005Z,5.10
2018-11-29T20:17:39.629Z,4.87
2018-11-29T20:20:11.986Z,5.50
2018-11-29T20:22:39.968Z,4.80
2018-11-29T20:25:11.492Z,5.70
2018-11-29T20:27:38.983Z,5.30
2018-11-29T20:30:10.840Z,5.70
2018-11-29T20:32:42.414Z,5.23
2018-11-29T20:35:10.508Z,5.10
2018-11-29T20:37:38.045Z,5.23
2018-11-29T20:40:15.271Z,5.33
2018-11-29T20:42:44.586Z,5.53
2018-11-29T20:45:14.023Z,5.53
2018-11-29T20:47:41.325Z,5.27
2018-11-29T20:50:14.735Z,5.40
2018-11-29T20:52:43.844Z,5.03
2018-11-29T20:55:12.741Z,5.40
2018-11-29T20:57:40.042Z,6.03
2018-11-29T21:00:10.764Z,5.70
2018-11-29T21:02:38.031Z,4.83
2018-11-29T21:05:09.777Z,5.20
2018-11-29T21:07:37.207Z,5.13
2018-11-29T21:10:11.219Z,4.90
2018-11-29T21:12:38.553Z,4.47
2018-11-29T21:15:06.101Z,5.67
2018-11-29T21:17:34.869Z,4.70
2018-11-29T21:20:02.266Z,5.13
2018-11-29T21:22:29.640Z,5.00
2018-11-29T21:24:56.972Z,5.43
2018-11-29T21:27:24.436Z,4.87
2018-11-29T21:29:51.738Z,5.70
2018-11-29T21:32:19.341Z,5.60
2018-11-29T21:34:46.612Z,5.30
2018-11-29T21:37:14.017Z,5.90
2018-11-29T21:39:41.422Z,4.80
2018-11-29T21:42:08.708Z,4.70
2018-11-29T21:44:39.900Z,5.00
2018-11-29T21:47:07.224Z,5.40
2018-11-29T21:49:34.634Z,5.27
2018-11-29T21:52:01.981Z,5.30
2018-11-29T21:54:29.252Z,5.50
2018-11-29T21:56:58.579Z,5.03
2018-11-29T21:59:25.915Z,5.70
2018-11-29T22:01:56.050Z,5.50
2018-11-29T22:04:23.324Z,6.30
2018-11-29T22:06:50.701Z,5.43
2018-11-29T22:09:17.976Z,5.67
2018-11-29T22:11:45.241Z,5.50
2018-11-29T22:14:12.504Z,5.73
2018-11-29T22:16:39.904Z,5.40
2018-11-29T22:19:07.322Z,5.50
2018-11-29T22:21:35.961Z,6.33
2018-11-29T22:24:03.273Z,5.23
2018-11-29T22:26:30.546Z,5.80
2018-11-29T22:29:00.713Z,5.70
2018-11-29T22:31:25.116Z,5.63
2018-11-29T22:33:52.728Z,6.50
2018-11-29T22:36:20.028Z,5.70
2018-11-29T22:38:47.298Z,5.30
2018-11-29T22:41:14.614Z,5.93
2018-11-29T22:43:41.885Z,6.47
2018-11-29T22:46:09.188Z,5.57
2018-11-29T22:48:36.991Z,6.90
2018-11-29T22:51:04.408Z,5.80
2018-11-29T22:53:32.044Z,6.07
2018-11-29T22:55:59.314Z,5.33
2018-11-29T22:58:26.580Z,6.07
2018-11-29T23:00:53.941Z,6.10
2018-11-29T23:03:21.392Z,6.47
2018-11-29T23:05:48.992Z,6.00
2018-11-29T23:08:16.563Z,6.03
2018-11-29T23:10:44.005Z,5.73
2018-11-29T23:13:11.492Z,5.30
2018-11-29T23:15:39.958Z,6.00
2018-11-29T23:18:08.013Z,4.53
2018-11-29T23:20:35.271Z,6.00
2018-11-29T23:23:02.512Z,5.20
2018-11-29T23:25:29.742Z,5.53
2018-11-29T23:27:57.060Z,5.33
2018-11-29T23:30:24.321Z,5.03
2018-11-29T23:32:51.738Z,5.53
2018-11-29T23:35:19.343Z,4.90
2018-11-29T23:37:46.843Z,5.87
2018-11-29T23:40:17.689Z,5.43
2018-11-29T23:42:45.413Z,5.40
2018-11-29T23:45:13.265Z,5.00
2018-11-29T23:47:41.116Z,4.93
2018-11-29T23:50:13.732Z,5.20
2018-11-29T23:52:40.971Z,5.40
2018-11-29T23:55:13.066Z,4.57
2018-11-29T23:57:40.398Z,5.13
